createdAt,value
2022-10-05T00:01:25.918Z,100516.69
2022-10-05T00:02:58.204Z,100515.19
2022-10-05T00:04:32.492Z,100521.03
2022-10-05T00:06:05.242Z,100512.81
2022-10-05T00:07:37.120Z,100515.47
2022-10-05T00:09:14.997Z,100521.59
2022-10-05T00:10:47.190Z,100516.94
2022-10-05T00:12:20.091Z,100529.19
2022-10-05T00:13:52.847Z,100523.06
2022-10-05T00:15:24.815Z,100530.97
2022-10-05T00:16:57.074Z,100523.88
2022-10-05T00:18:29.030Z,100524.34
2022-10-05T00:20:01.187Z,100523.13
2022-10-05T00:21:33.477Z,100522.91
2022-10-05T00:23:07.518Z,100530.28
2022-10-05T00:24:39.566Z,100525.38
2022-10-05T00:26:14.088Z,100529.84
2022-10-05T00:27:48.389Z,100530.38
2022-10-05T00:29:23.887Z,100534.81
2022-10-05T00:30:56.640Z,100523.06
2022-10-05T00:32:28.532Z,100530.94
2022-10-05T00:34:00.460Z,100531.97
2022-10-05T00:35:34.677Z,100534.47
2022-10-05T00:37:06.752Z,100523.66
2022-10-05T00:38:38.723Z,100528.31
2022-10-05T00:40:10.638Z,100531.75
2022-10-05T00:42:01.381Z,100531.75
2022-10-05T00:43:33.300Z,100532.75
2022-10-05T00:45:25.675Z,100529.13
2022-10-05T00:47:07.326Z,100531.88
2022-10-05T00:48:39.205Z,100526.75
2022-10-05T00:50:24.796Z,100532.47
2022-10-05T00:52:02.798Z,100536.09
2022-10-05T00:53:34.906Z,100530.34
2022-10-05T00:55:12.711Z,100527.16
2022-10-05T00:56:44.810Z,100531.50
2022-10-05T00:58:30.021Z,100526.13
2022-10-05T01:00:22.152Z,100530.56
2022-10-05T01:02:23.510Z,100528.69
2022-10-05T01:04:01.282Z,100521.38
2022-10-05T01:05:33.102Z,100525.09
2022-10-05T01:07:08.153Z,100524.16
2022-10-05T01:08:48.865Z,100525.16
2022-10-05T01:10:26.546Z,100535.53
2022-10-05T01:12:12.306Z,100537.25
2022-10-05T01:14:07.628Z,100532.16
2022-10-05T01:15:42.213Z,100533.69
2022-10-05T01:17:22.620Z,100527.81
2022-10-05T01:18:57.588Z,100536.00
2022-10-05T01:20:29.459Z,100538.47
2022-10-05T01:22:04.621Z,100537.00
2022-10-05T01:23:45.534Z,100532.13
2022-10-05T01:25:30.260Z,100539.94
2022-10-05T01:27:02.408Z,100534.25
2022-10-05T01:28:52.854Z,100536.22
2022-10-05T01:30:24.800Z,100539.19
2022-10-05T01:32:05.420Z,100540.44
2022-10-05T01:33:37.744Z,100537.97
2022-10-05T01:35:17.788Z,100549.00
2022-10-05T01:37:08.572Z,100540.06
2022-10-05T01:38:58.761Z,100541.56
2022-10-05T01:40:35.475Z,100547.03
2022-10-05T01:42:31.195Z,100553.88
2022-10-05T01:44:04.650Z,100544.03
2022-10-05T01:45:51.105Z,100543.50
2022-10-05T01:47:23.116Z,100538.09
2022-10-05T01:48:57.898Z,100538.28
2022-10-05T01:50:45.471Z,100527.72
2022-10-05T01:52:29.645Z,100523.75
2022-10-05T01:54:08.022Z,100519.81
2022-10-05T01:55:52.467Z,100513.94
2022-10-05T01:57:34.172Z,100509.75
2022-10-05T01:59:16.758Z,100518.38
2022-10-05T02:01:04.277Z,100513.69
2022-10-05T02:02:56.414Z,100506.56
2022-10-05T02:04:59.680Z,100501.16
2022-10-05T02:06:23.323Z,100505.31
2022-10-05T02:08:10.973Z,100506.78
2022-10-05T02:09:52.713Z,100497.75
2022-10-05T02:11:26.771Z,100495.31
2022-10-05T02:13:00.967Z,100495.84
2022-10-05T02:14:39.097Z,100499.03
2022-10-05T02:16:17.023Z,100487.78
2022-10-05T02:17:50.413Z,100491.50
2022-10-05T02:19:22.531Z,100488.88
2022-10-05T02:20:55.516Z,100487.69
2022-10-05T02:22:50.568Z,100485.53
2022-10-05T02:24:24.861Z,100485.53
2022-10-05T02:25:58.172Z,100479.59
2022-10-05T02:27:31.713Z,100477.44
2022-10-05T02:29:05.915Z,100485.00
2022-10-05T02:30:47.252Z,100487.44
2022-10-05T02:32:24.081Z,100493.28
2022-10-05T02:34:14.825Z,100492.56
2022-10-05T02:35:46.730Z,100496.25
2022-10-05T02:37:25.213Z,100487.66
2022-10-05T02:38:57.468Z,100484.59
2022-10-05T02:40:29.394Z,100495.84
2022-10-05T02:42:09.063Z,100492.41
2022-10-05T02:43:41.042Z,100494.38
2022-10-05T02:45:27.690Z,100497.31
2022-10-05T02:47:07.685Z,100498.91
2022-10-05T02:48:58.704Z,100488.75
2022-10-05T02:50:48.506Z,100497.03
2022-10-05T02:52:26.317Z,100498.63
2022-10-05T02:53:58.274Z,100495.81
2022-10-05T02:55:48.956Z,100495.31
2022-10-05T02:57:39.953Z,100492.94
2022-10-05T02:59:17.022Z,100492.97
2022-10-05T03:00:55.507Z,100489.56
2022-10-05T03:02:40.682Z,100495.69
2022-10-05T03:04:19.470Z,100493.22
2022-10-05T03:05:58.434Z,100498.63
2022-10-05T03:07:34.033Z,100495.69
2022-10-05T03:09:09.473Z,100495.69
2022-10-05T03:11:01.280Z,100498.63
2022-10-05T03:12:44.782Z,100499.06
2022-10-05T03:14:23.063Z,100494.38
2022-10-05T03:16:15.520Z,100492.38
2022-10-05T03:18:04.186Z,100485.00
2022-10-05T03:19:54.311Z,100485.75
2022-10-05T03:21:35.381Z,100490.25
2022-10-05T03:23:11.426Z,100484.28
2022-10-05T03:24:55.386Z,100480.16
2022-10-05T03:26:30.874Z,100478.69
2022-10-05T03:28:26.844Z,100476.91
2022-10-05T03:30:05.056Z,100479.09
2022-10-05T03:31:51.368Z,100489.16
2022-10-05T03:33:42.944Z,100483.78
2022-10-05T03:35:26.068Z,100482.84
2022-10-05T03:37:04.157Z,100475.47
2022-10-05T03:38:41.663Z,100486.81
2022-10-05T03:40:19.719Z,100485.31
2022-10-05T03:41:58.489Z,100480.16
2022-10-05T03:43:49.060Z,100490.97
2022-10-05T03:45:23.614Z,100487.19
2022-10-05T03:47:04.197Z,100488.88
2022-10-05T03:48:52.746Z,100490.56
2022-10-05T03:50:43.353Z,100481.50
2022-10-05T03:52:17.682Z,100477.59
2022-10-05T03:53:55.486Z,100476.09
2022-10-05T03:55:36.430Z,100477.88
2022-10-05T03:57:15.652Z,100480.16
2022-10-05T03:59:23.517Z,100483.34
2022-10-05T04:00:59.322Z,100470.59
2022-10-05T04:02:33.669Z,100466.09
2022-10-05T04:04:09.869Z,100461.44
2022-10-05T04:05:48.650Z,100455.53
2022-10-05T04:07:29.349Z,100462.41
2022-10-05T04:09:07.323Z,100463.63
2022-10-05T04:10:47.552Z,100458.72
2022-10-05T04:12:20.099Z,100465.94
2022-10-05T04:14:02.662Z,100457.09
2022-10-05T04:15:40.761Z,100450.44
2022-10-05T04:17:15.689Z,100449.72
2022-10-05T04:18:54.699Z,100452.19
2022-10-05T04:20:33.271Z,100451.25
2022-10-05T04:22:06.364Z,100453.72
2022-10-05T04:23:41.919Z,100456.69
2022-10-05T04:25:13.777Z,100445.47
2022-10-05T04:26:50.742Z,100440.34
2022-10-05T04:28:31.186Z,100437.66
2022-10-05T04:30:12.521Z,100433.09
2022-10-05T04:32:03.948Z,100434.13
2022-10-05T04:33:35.853Z,100435.56
2022-10-05T04:35:45.916Z,100441.69
2022-10-05T04:37:39.581Z,100447.09
2022-10-05T04:39:15.948Z,100446.78
2022-10-05T04:41:06.521Z,100448.75
2022-10-05T04:42:44.154Z,100444.31
2022-10-05T04:44:31.142Z,100439.41
2022-10-05T04:46:17.990Z,100444.81
2022-10-05T04:48:09.932Z,100444.59
2022-10-05T04:50:01.730Z,100448.03
2022-10-05T04:51:56.044Z,100451.25
2022-10-05T04:53:44.985Z,100448.34
2022-10-05T04:55:35.820Z,100459.44
2022-10-05T04:57:12.085Z,100474.66
2022-10-05T04:58:52.305Z,100469.34
2022-10-05T05:00:29.545Z,100476.72
2022-10-05T05:02:18.145Z,100473.78
2022-10-05T05:03:50.281Z,100471.81
2022-10-05T05:05:53.040Z,100480.16
2022-10-05T05:07:30.157Z,100472.69
2022-10-05T05:09:10.749Z,100479.56
2022-10-05T05:10:57.842Z,100484.16
2022-10-05T05:12:39.019Z,100490.00
2022-10-05T05:14:26.717Z,100489.28
2022-10-05T05:16:04.712Z,100495.59
2022-10-05T05:17:48.140Z,100506.84
2022-10-05T05:19:29.361Z,100503.88
2022-10-05T05:21:13.616Z,100508.69
2022-10-05T05:23:03.840Z,100508.69
2022-10-05T05:24:43.391Z,100518.16
2022-10-05T05:26:22.450Z,100523.78
2022-10-05T05:27:58.381Z,100530.13
2022-10-05T05:29:37.161Z,100533.06
2022-10-05T05:31:09.133Z,100535.78
2022-10-05T05:32:44.037Z,100529.38
2022-10-05T05:34:36.291Z,100524.16
2022-10-05T05:36:23.697Z,100525.75
2022-10-05T05:38:10.998Z,100534.28
2022-10-05T05:40:08.961Z,100525.38
2022-10-05T05:41:51.395Z,100534.13
2022-10-05T05:43:23.643Z,100538.94
2022-10-05T05:45:00.186Z,100542.78
2022-10-05T05:47:01.883Z,100553.84
2022-10-05T05:48:40.918Z,100560.69
2022-10-05T05:50:23.312Z,100552.91
2022-10-05T05:52:00.010Z,100547.75
2022-10-05T05:53:46.158Z,100541.31
2022-10-05T05:55:21.404Z,100547.56
2022-10-05T05:56:56.732Z,100566.69
2022-10-05T05:58:29.019Z,100566.84
2022-10-05T06:00:15.770Z,100567.25
2022-10-05T06:02:06.903Z,100568.72
2022-10-05T06:04:05.085Z,100579.53
2022-10-05T06:06:03.386Z,100571.09
2022-10-05T06:07:39.005Z,100566.00
2022-10-05T06:09:16.988Z,100561.00
2022-10-05T06:11:00.114Z,100570.47
2022-10-05T06:12:41.922Z,100565.78
2022-10-05T06:14:27.377Z,100574.03
2022-10-05T06:16:10.059Z,100575.28
2022-10-05T06:17:52.734Z,100585.66
2022-10-05T06:19:26.454Z,100586.50
2022-10-05T06:20:58.541Z,100574.03
2022-10-05T06:22:34.769Z,100582.88
2022-10-05T06:24:06.759Z,100577.41
2022-10-05T06:25:44.953Z,100588.22
2022-10-05T06:27:19.747Z,100587.06
2022-10-05T06:28:56.268Z,100581.13
2022-10-05T06:30:35.007Z,100593.22
2022-10-05T06:32:15.323Z,100598.63
2022-10-05T06:33:50.003Z,100590.94
2022-10-05T06:35:24.830Z,100599.56
2022-10-05T06:37:00.172Z,100579.47
2022-10-05T06:39:02.610Z,100569.41
2022-10-05T06:40:53.310Z,100567.44
2022-10-05T06:42:28.307Z,100588.03
2022-10-05T06:44:49.892Z,100591.13
2022-10-05T06:46:52.927Z,100585.00
2022-10-05T06:48:48.952Z,100581.03
2022-10-05T06:50:36.861Z,100572.78
2022-10-05T06:52:29.991Z,100598.44
2022-10-05T06:54:30.960Z,100604.38
2022-10-05T06:56:11.698Z,100574.25
2022-10-05T06:57:43.724Z,100585.72
2022-10-05T06:59:23.479Z,100574.22
2022-10-05T07:01:01.514Z,100573.19
2022-10-05T07:02:44.508Z,100577.97
2022-10-05T07:04:19.535Z,100570.22
2022-10-05T07:06:00.428Z,100578.59
2022-10-05T07:07:40.514Z,100572.81
2022-10-05T07:09:15.478Z,100578.03
2022-10-05T07:10:59.924Z,100588.53
2022-10-05T07:12:51.094Z,100591.78
2022-10-05T07:14:27.139Z,100606.41
2022-10-05T07:16:03.212Z,100598.34
2022-10-05T07:17:35.245Z,100572.56
2022-10-05T07:19:10.360Z,100575.16
2022-10-05T07:20:53.076Z,100592.63
2022-10-05T07:22:34.240Z,100581.25
2022-10-05T07:24:29.313Z,100582.91
2022-10-05T07:26:30.905Z,100617.78
2022-10-05T07:28:07.883Z,100578.09
2022-10-05T07:29:59.070Z,100555.19
2022-10-05T07:31:34.084Z,100584.56
2022-10-05T07:33:13.815Z,100588.06
2022-10-05T07:34:58.429Z,100587.28
2022-10-05T07:37:00.269Z,100593.69
2022-10-05T07:38:38.412Z,100601.56
2022-10-05T07:40:22.184Z,100601.44
2022-10-05T07:42:03.380Z,100601.13
2022-10-05T07:44:00.419Z,100587.88
2022-10-05T07:45:41.962Z,100571.34
2022-10-05T07:47:18.783Z,100586.13
2022-10-05T07:48:56.456Z,100597.72
2022-10-05T07:50:38.678Z,100585.81
2022-10-05T07:52:17.092Z,100583.22
2022-10-05T07:54:00.699Z,100584.63
2022-10-05T07:55:32.687Z,100582.84
2022-10-05T07:57:07.576Z,100595.53
2022-10-05T07:58:51.997Z,100594.44
2022-10-05T08:00:27.521Z,100579.25
2022-10-05T08:02:13.925Z,100575.56
2022-10-05T08:03:47.157Z,100581.25
2022-10-05T08:05:40.741Z,100582.72
2022-10-05T08:07:13.956Z,100588.84
2022-10-05T08:08:53.802Z,100576.41
2022-10-05T08:10:28.756Z,100572.06
2022-10-05T08:12:00.895Z,100567.94
2022-10-05T08:13:41.827Z,100571.03
2022-10-05T08:15:15.529Z,100565.19
2022-10-05T08:16:48.799Z,100575.88
2022-10-05T08:18:39.800Z,100579.03
2022-10-05T08:20:30.501Z,100581.63
2022-10-05T08:22:06.980Z,100572.09
2022-10-05T08:23:41.919Z,100584.84
2022-10-05T08:25:24.678Z,100586.19
2022-10-05T08:27:02.720Z,100587.38
2022-10-05T08:28:37.698Z,100590.88
2022-10-05T08:30:10.923Z,100587.84
2022-10-05T08:31:46.208Z,100589.91
2022-10-05T08:33:19.167Z,100596.41
2022-10-05T08:34:51.279Z,100584.66
2022-10-05T08:36:29.054Z,100587.91
2022-10-05T08:38:03.824Z,100581.00
2022-10-05T08:39:38.996Z,100573.34
2022-10-05T08:41:16.934Z,100575.69
2022-10-05T08:42:48.863Z,100573.13
2022-10-05T08:44:34.527Z,100572.38
2022-10-05T08:46:18.403Z,100569.84
2022-10-05T08:47:50.722Z,100566.56
2022-10-05T08:49:25.901Z,100563.88
2022-10-05T08:51:16.733Z,100567.34
2022-10-05T08:53:03.856Z,100567.53
2022-10-05T08:54:38.840Z,100563.78
2022-10-05T08:56:19.114Z,100563.94
2022-10-05T08:58:12.236Z,100564.31
2022-10-05T09:00:01.547Z,100565.03
2022-10-05T09:01:41.503Z,100562.69
2022-10-05T09:03:34.868Z,100556.88
2022-10-05T09:05:28.730Z,100557.25
2022-10-05T09:07:15.425Z,100545.97
2022-10-05T09:08:56.806Z,100549.94
2022-10-05T09:10:28.760Z,100545.53
2022-10-05T09:12:26.849Z,100551.16
2022-10-05T09:14:14.078Z,100538.25
2022-10-05T09:16:04.971Z,100536.56
2022-10-05T09:17:48.920Z,100538.50
2022-10-05T09:19:30.183Z,100552.38
2022-10-05T09:21:06.005Z,100544.50
2022-10-05T09:22:56.346Z,100548.47
2022-10-05T09:24:34.600Z,100543.28
2022-10-05T09:26:06.658Z,100543.41
2022-10-05T09:27:43.013Z,100542.00
2022-10-05T09:29:33.842Z,100536.22
2022-10-05T09:31:11.977Z,100538.69
2022-10-05T09:32:44.013Z,100545.63
2022-10-05T09:34:31.206Z,100545.00
2022-10-05T09:36:09.698Z,100540.38
2022-10-05T09:38:00.121Z,100535.31
2022-10-05T09:39:48.888Z,100535.00
2022-10-05T09:41:32.455Z,100543.13
2022-10-05T09:43:07.208Z,100532.69
2022-10-05T09:44:58.074Z,100529.38
2022-10-05T09:46:43.598Z,100527.41
2022-10-05T09:48:15.435Z,100528.75
2022-10-05T09:49:58.150Z,100529.47
2022-10-05T09:51:30.028Z,100534.25
2022-10-05T09:53:20.360Z,100539.16
2022-10-05T09:55:11.928Z,100541.50
2022-10-05T09:56:46.762Z,100543.50
2022-10-05T09:58:37.156Z,100540.22
2022-10-05T10:00:09.712Z,100547.41
2022-10-05T10:01:59.703Z,100545.09
2022-10-05T10:03:58.731Z,100544.09
2022-10-05T10:05:33.946Z,100542.22
2022-10-05T10:07:20.659Z,100539.53
2022-10-05T10:09:11.040Z,100541.84
2022-10-05T10:10:48.835Z,100548.44
2022-10-05T10:12:32.913Z,100547.84
2022-10-05T10:14:12.999Z,100542.16
2022-10-05T10:15:48.458Z,100533.72
2022-10-05T10:17:39.165Z,100520.28
2022-10-05T10:19:19.963Z,100527.44
2022-10-05T10:20:51.780Z,100519.41
2022-10-05T10:22:29.630Z,100521.25
2022-10-05T10:24:19.951Z,100517.69
2022-10-05T10:26:11.801Z,100524.19
2022-10-05T10:27:54.493Z,100517.44
2022-10-05T10:29:35.918Z,100524.38
2022-10-05T10:31:23.715Z,100520.09
2022-10-05T10:32:57.007Z,100517.13
2022-10-05T10:34:28.924Z,100515.88
2022-10-05T10:36:03.094Z,100516.84
2022-10-05T10:38:00.717Z,100515.19
2022-10-05T10:39:32.595Z,100517.94
2022-10-05T10:41:10.635Z,100517.81
2022-10-05T10:42:48.828Z,100511.13
2022-10-05T10:44:29.795Z,100506.00
2022-10-05T10:46:20.753Z,100510.44
2022-10-05T10:48:11.047Z,100511.97
2022-10-05T10:50:01.354Z,100500.06
2022-10-05T10:51:51.587Z,100507.22
2022-10-05T10:53:30.017Z,100513.94
2022-10-05T10:55:14.178Z,100508.78
2022-10-05T10:56:58.422Z,100511.19
2022-10-05T10:58:39.857Z,100505.56
2022-10-05T11:00:21.125Z,100504.34
2022-10-05T11:01:55.894Z,100507.94
2022-10-05T11:03:34.035Z,100509.72
2022-10-05T11:05:09.133Z,100501.59
2022-10-05T11:06:50.106Z,100500.75
2022-10-05T11:08:37.370Z,100500.91
2022-10-05T11:10:27.286Z,100499.34
2022-10-05T11:12:17.975Z,100500.19
2022-10-05T11:13:52.795Z,100495.41
2022-10-05T11:15:44.985Z,100499.00
2022-10-05T11:17:35.396Z,100493.72
2022-10-05T11:19:35.144Z,100488.94
2022-10-05T11:21:36.847Z,100491.66
2022-10-05T11:23:08.686Z,100488.53
2022-10-05T11:25:03.630Z,100480.50
2022-10-05T11:26:47.933Z,100484.91
2022-10-05T11:28:40.532Z,100484.63
2022-10-05T11:30:30.941Z,100471.44
2022-10-05T11:32:21.844Z,100477.66
2022-10-05T11:34:16.142Z,100474.28
2022-10-05T11:35:59.302Z,100473.19
2022-10-05T11:37:36.259Z,100463.81
2022-10-05T11:39:30.512Z,100467.50
2022-10-05T11:41:22.499Z,100470.00
2022-10-05T11:42:54.612Z,100466.94
2022-10-05T11:44:29.574Z,100460.13
2022-10-05T11:46:13.715Z,100459.91
2022-10-05T11:47:45.621Z,100449.81
2022-10-05T11:49:17.507Z,100456.38
2022-10-05T11:51:08.074Z,100454.03
2022-10-05T11:52:55.790Z,100445.38
2022-10-05T11:54:27.605Z,100447.72
2022-10-05T11:56:15.038Z,100447.84
2022-10-05T11:57:53.017Z,100448.16
2022-10-05T11:59:39.518Z,100449.78
2022-10-05T12:01:20.317Z,100447.44
2022-10-05T12:03:19.948Z,100447.78
2022-10-05T12:04:54.918Z,100453.06
2022-10-05T12:06:34.186Z,100442.84
2022-10-05T12:08:08.910Z,100442.75
2022-10-05T12:10:12.815Z,100437.94
2022-10-05T12:11:54.321Z,100438.34
2022-10-05T12:13:41.147Z,100437.81
2022-10-05T12:15:24.003Z,100440.66
2022-10-05T12:16:55.839Z,100441.59
2022-10-05T12:18:31.153Z,100441.59
2022-10-05T12:20:07.556Z,100448.75
2022-10-05T12:21:59.878Z,100443.72
2022-10-05T12:23:34.958Z,100448.53
2022-10-05T12:25:16.001Z,100434.00
2022-10-05T12:26:51.304Z,100441.06
2022-10-05T12:28:28.112Z,100448.09
2022-10-05T12:30:03.447Z,100442.94
2022-10-05T12:31:48.465Z,100425.88
2022-10-05T12:33:26.976Z,100432.44
2022-10-05T12:35:05.047Z,100423.22
2022-10-05T12:37:02.969Z,100421.50
2022-10-05T12:38:37.354Z,100427.28
2022-10-05T12:40:15.036Z,100424.84
2022-10-05T12:41:56.123Z,100419.91
2022-10-05T12:43:38.942Z,100412.34
2022-10-05T12:45:13.929Z,100417.28
2022-10-05T12:46:57.573Z,100422.47
2022-10-05T12:48:40.136Z,100430.56
2022-10-05T12:50:30.662Z,100434.72
2022-10-05T12:52:04.948Z,100428.69
2022-10-05T12:53:48.475Z,100425.41
2022-10-05T12:55:26.112Z,100428.47
2022-10-05T12:56:59.617Z,100432.53
2022-10-05T12:58:39.228Z,100433.06
2022-10-05T13:00:13.190Z,100432.78
2022-10-05T13:02:01.017Z,100424.41
2022-10-05T13:03:53.212Z,100429.09
2022-10-05T13:05:31.867Z,100424.91
2022-10-05T13:07:18.017Z,100424.31
2022-10-05T13:08:54.898Z,100428.13
2022-10-05T13:10:33.512Z,100422.91
2022-10-05T13:12:29.846Z,100425.38
2022-10-05T13:14:13.622Z,100432.94
2022-10-05T13:15:50.109Z,100422.09
2022-10-05T13:17:42.249Z,100426.91
2022-10-05T13:19:16.439Z,100428.94
2022-10-05T13:21:02.952Z,100422.00
2022-10-05T13:22:42.453Z,100430.38
2022-10-05T13:24:22.108Z,100430.47
2022-10-05T13:25:59.429Z,100432.63
2022-10-05T13:27:42.100Z,100427.09
2022-10-05T13:29:38.714Z,100427.00
2022-10-05T13:31:18.660Z,100425.69
2022-10-05T13:32:58.602Z,100429.66
2022-10-05T13:34:36.068Z,100433.13
2022-10-05T13:36:13.885Z,100424.66
2022-10-05T13:38:04.295Z,100430.78
2022-10-05T13:39:37.079Z,100434.16
2022-10-05T13:41:15.010Z,100423.44
2022-10-05T13:42:49.899Z,100425.38
2022-10-05T13:44:41.967Z,100421.13
2022-10-05T13:46:29.371Z,100418.22
2022-10-05T13:48:13.050Z,100428.03
2022-10-05T13:49:49.991Z,100423.94
2022-10-05T13:51:28.361Z,100423.13
2022-10-05T13:53:02.914Z,100414.16
2022-10-05T13:54:47.725Z,100422.41
2022-10-05T13:56:19.577Z,100418.94
2022-10-05T13:58:02.556Z,100417.63
2022-10-05T13:59:53.463Z,100421.19
2022-10-05T14:01:35.509Z,100421.69
2022-10-05T14:03:23.040Z,100415.97
2022-10-05T14:04:59.467Z,100418.63
2022-10-05T14:06:32.685Z,100427.34
2022-10-05T14:08:04.557Z,100420.88
2022-10-05T14:09:37.030Z,100420.56
2022-10-05T14:11:20.669Z,100420.16
2022-10-05T14:12:54.097Z,100414.56
2022-10-05T14:14:28.293Z,100417.69
2022-10-05T14:16:04.382Z,100423.72
2022-10-05T14:17:40.453Z,100421.47
2022-10-05T14:19:21.951Z,100419.09
2022-10-05T14:20:59.687Z,100419.72
2022-10-05T14:22:40.802Z,100424.50
2022-10-05T14:24:43.262Z,100426.44
2022-10-05T14:26:25.403Z,100419.91
2022-10-05T14:27:57.362Z,100419.47
2022-10-05T14:29:36.326Z,100417.94
2022-10-05T14:31:16.315Z,100417.38
2022-10-05T14:32:51.428Z,100431.53
2022-10-05T14:34:29.347Z,100427.13
2022-10-05T14:36:02.527Z,100420.59
2022-10-05T14:37:51.610Z,100412.81
2022-10-05T14:39:27.551Z,100414.63
2022-10-05T14:41:03.241Z,100409.41
2022-10-05T14:42:46.303Z,100413.84
2022-10-05T14:44:26.720Z,100413.53
2022-10-05T14:46:01.426Z,100406.13
2022-10-05T14:47:34.280Z,100410.31
2022-10-05T14:49:26.507Z,100399.69
2022-10-05T14:51:05.220Z,100400.66
2022-10-05T14:52:38.852Z,100398.19
2022-10-05T14:54:25.817Z,100402.00
2022-10-05T14:56:14.290Z,100390.66
2022-10-05T14:57:53.521Z,100388.41
2022-10-05T14:59:53.859Z,100388.78
2022-10-05T15:01:26.948Z,100393.19
2022-10-05T15:03:07.997Z,100385.28
2022-10-05T15:04:44.424Z,100385.69
2022-10-05T15:06:36.523Z,100392.13
2022-10-05T15:08:11.464Z,100393.06
2022-10-05T15:09:52.494Z,100396.28
2022-10-05T15:11:49.310Z,100391.16
2022-10-05T15:13:25.790Z,100389.38
2022-10-05T15:15:02.937Z,100396.63
2022-10-05T15:16:39.235Z,100396.50
2022-10-05T15:18:34.972Z,100390.66
2022-10-05T15:20:24.506Z,100387.53
2022-10-05T15:22:02.843Z,100382.97
2022-10-05T15:23:40.782Z,100386.06
2022-10-05T15:25:27.076Z,100376.16
2022-10-05T15:27:00.385Z,100388.22
2022-10-05T15:28:48.402Z,100382.47
2022-10-05T15:30:20.288Z,100376.00
2022-10-05T15:32:01.031Z,100380.53
2022-10-05T15:33:41.606Z,100382.88
2022-10-05T15:35:22.131Z,100388.13
2022-10-05T15:37:16.914Z,100386.44
2022-10-05T15:39:04.137Z,100388.78
2022-10-05T15:40:43.892Z,100388.53
2022-10-05T15:42:21.578Z,100388.84
2022-10-05T15:43:58.602Z,100385.13
2022-10-05T15:45:35.248Z,100384.88
2022-10-05T15:47:09.223Z,100387.97
2022-10-05T15:49:08.587Z,100389.81
2022-10-05T15:50:57.607Z,100390.16
2022-10-05T15:52:32.582Z,100387.75
2022-10-05T15:54:41.922Z,100396.31
2022-10-05T15:56:28.904Z,100395.19
2022-10-05T15:58:08.110Z,100394.31
2022-10-05T15:59:43.129Z,100389.78
2022-10-05T16:01:33.448Z,100389.47
2022-10-05T16:03:17.437Z,100392.66
2022-10-05T16:05:11.891Z,100391.69
2022-10-05T16:07:09.526Z,100387.38
2022-10-05T16:08:56.360Z,100390.44
2022-10-05T16:10:29.984Z,100392.19
2022-10-05T16:12:04.955Z,100395.34
2022-10-05T16:13:51.758Z,100388.16
2022-10-05T16:15:35.743Z,100396.13
2022-10-05T16:17:27.904Z,100392.41
2022-10-05T16:19:12.611Z,100387.19
2022-10-05T16:20:55.077Z,100394.44
2022-10-05T16:22:43.452Z,100390.69
2022-10-05T16:24:42.827Z,100388.84
2022-10-05T16:26:33.313Z,100396.06
2022-10-05T16:28:20.119Z,100402.69
2022-10-05T16:30:01.763Z,100395.50
2022-10-05T16:31:54.412Z,100396.66
2022-10-05T16:33:49.888Z,100404.59
2022-10-05T16:35:43.599Z,100403.00
2022-10-05T16:37:28.239Z,100410.22
2022-10-05T16:39:05.770Z,100402.84
2022-10-05T16:40:46.456Z,100403.88
2022-10-05T16:42:27.174Z,100407.78
2022-10-05T16:44:01.621Z,100409.78
2022-10-05T16:45:52.117Z,100411.66
2022-10-05T16:47:32.436Z,100406.03
2022-10-05T16:49:23.027Z,100411.50
2022-10-05T16:51:02.722Z,100412.22
2022-10-05T16:52:37.150Z,100422.59
2022-10-05T16:54:19.924Z,100420.59
2022-10-05T16:55:53.136Z,100421.16
2022-10-05T16:57:37.709Z,100427.22
2022-10-05T16:59:24.515Z,100425.78
2022-10-05T17:01:02.490Z,100424.47
2022-10-05T17:02:53.191Z,100423.03
2022-10-05T17:04:27.997Z,100426.50
2022-10-05T17:06:08.422Z,100424.47
2022-10-05T17:07:48.075Z,100422.31
2022-10-05T17:09:42.012Z,100423.63
2022-10-05T17:11:22.759Z,100435.00
2022-10-05T17:12:54.642Z,100440.28
2022-10-05T17:14:43.389Z,100434.81
2022-10-05T17:16:29.348Z,100441.59
2022-10-05T17:18:20.862Z,100436.72
2022-10-05T17:19:55.565Z,100435.28
2022-10-05T17:21:32.191Z,100444.94
2022-10-05T17:23:04.412Z,100446.22
2022-10-05T17:24:51.235Z,100441.31
2022-10-05T17:26:23.160Z,100440.47
2022-10-05T17:27:55.098Z,100444.88
2022-10-05T17:29:47.689Z,100446.78
2022-10-05T17:31:23.212Z,100443.75
2022-10-05T17:33:14.219Z,100448.34
2022-10-05T17:35:01.328Z,100444.75
2022-10-05T17:36:40.158Z,100450.06
2022-10-05T17:38:15.822Z,100456.81
2022-10-05T17:39:49.556Z,100450.34
2022-10-05T17:41:28.763Z,100450.06
2022-10-05T17:43:04.645Z,100451.75
2022-10-05T17:44:36.533Z,100449.28
2022-10-05T17:46:09.227Z,100448.13
2022-10-05T17:48:01.566Z,100459.16
2022-10-05T17:49:39.904Z,100453.25
2022-10-05T17:51:53.390Z,100461.44
2022-10-05T17:53:52.866Z,100459.72
2022-10-05T17:55:34.248Z,100461.97
2022-10-05T17:57:06.156Z,100466.41
2022-10-05T17:58:44.144Z,100461.53
2022-10-05T18:00:40.392Z,100468.09
2022-10-05T18:02:22.979Z,100459.59
2022-10-05T18:03:56.229Z,100464.59
2022-10-05T18:05:29.093Z,100462.88
2022-10-05T18:07:29.989Z,100460.94
2022-10-05T18:09:20.501Z,100460.63
2022-10-05T18:11:11.274Z,100460.91
2022-10-05T18:13:01.625Z,100460.59
2022-10-05T18:14:51.946Z,100463.53
2022-10-05T18:16:42.147Z,100460.47
2022-10-05T18:18:32.385Z,100459.44
2022-10-05T18:20:23.338Z,100470.06
2022-10-05T18:22:15.661Z,100470.28
2022-10-05T18:23:59.693Z,100468.69
2022-10-05T18:25:50.324Z,100467.81
2022-10-05T18:27:34.119Z,100465.50
2022-10-05T18:29:14.124Z,100469.34
2022-10-05T18:31:16.098Z,100470.66
2022-10-05T18:33:00.216Z,100473.19
2022-10-05T18:34:38.598Z,100473.03
2022-10-05T18:36:10.652Z,100468.28
2022-10-05T18:37:54.874Z,100472.31
2022-10-05T18:39:45.726Z,100475.91
2022-10-05T18:41:44.519Z,100458.81
2022-10-05T18:43:34.750Z,100471.03
2022-10-05T18:45:15.314Z,100472.88
2022-10-05T18:46:56.439Z,100465.97
2022-10-05T18:48:47.083Z,100466.53
2022-10-05T18:50:22.173Z,100475.84
2022-10-05T18:51:56.876Z,100470.22
2022-10-05T18:53:41.238Z,100464.06
2022-10-05T18:55:18.712Z,100465.88
2022-10-05T18:56:51.574Z,100467.31
2022-10-05T18:58:31.454Z,100467.31
2022-10-05T19:00:15.327Z,100467.31
2022-10-05T19:01:50.553Z,100468.59
2022-10-05T19:03:34.558Z,100469.19
2022-10-05T19:07:37.714Z,100461.84
2022-10-05T19:09:09.532Z,100467.88
2022-10-05T19:10:44.888Z,100467.16
2022-10-05T19:12:19.805Z,100458.81
2022-10-05T19:13:51.660Z,100463.69
2022-10-05T19:15:26.550Z,100462.22
2022-10-05T19:17:16.769Z,100466.25
2022-10-05T19:18:57.918Z,100461.19
2022-10-05T19:20:37.393Z,100460.88
2022-10-05T19:22:28.143Z,100458.31
2022-10-05T19:24:33.006Z,100465.59
2022-10-05T19:26:14.590Z,100464.31